Time;durP1;ratioP1;P1;durP2;ratioP2;P2;SDS_P1;SDS_P2;PMS_P1;PMS_P2;Temp;Humidity;BMP_temperature;BMP_pressure;BME280_temperature;BME280_humidity;BME280_pressure;Samples;Min_cycle;Max_cycle;Signal;HPM_P1;HPM_P2
2021/09/10 00:00:36;;;;;;;;;;;;;;;29.09;42.99;101119.81;5084067;28;20003;-87
2021/09/10 00:03:03;;;;;;;;;;;;;;;29.14;43.41;101122.06;5102012;28;20452;-90
2021/09/10 00:05:28;;;;;;;;;;;;;;;29.15;42.93;101118.19;5103515;28;19974;-84
2021/09/10 00:07:53;;;;;;;;;;;;;;;29.20;43.06;101121.28;5085466;28;19915;-85
2021/09/10 00:10:18;;;;;;;;;;;;;;;28.57;44.88;101110.31;5084611;28;19920;-87
2021/09/10 00:12:44;;;;;;;;;;;;;;;28.81;44.52;101119.56;5085437;28;19900;-83
2021/09/10 00:15:15;;;;;;;;;;;;;;;28.61;44.88;101117.28;5103711;28;19916;-86
2021/09/10 00:17:40;;;;;;;;;;;;;;;28.64;45.00;101111.34;5102039;28;20011;-86
2021/09/10 00:20:06;;;;;;;;;;;;;;;28.20;46.45;101114.75;5082876;28;19959;-89
2021/09/10 00:22:31;;;;;;;;;;;;;;;28.31;46.13;101107.00;5083980;28;19916;-88
2021/09/10 00:24:56;;;;;;;;;;;;;;;28.15;46.12;101107.97;5083828;28;20285;-89
2021/09/10 00:27:22;;;;;;;;;;;;;;;27.81;47.75;101115.59;5102056;28;19916;-87
2021/09/10 00:29:48;;;;;;;;;;;;;;;28.67;45.55;101100.88;5083986;28;19916;-86
2021/09/10 00:32:13;;;;;;;;;;;;;;;28.52;45.81;101106.34;5083119;28;19928;-90
2021/09/10 00:34:38;;;;;;;;;;;;;;;28.62;45.39;101107.00;5083315;28;19916;-83
2021/09/10 00:37:04;;;;;;;;;;;;;;;28.66;45.46;101107.50;5084067;28;20582;-87
2021/09/10 00:39:29;;;;;;;;;;;;;;;28.47;45.99;101104.09;5084134;28;19963;-89
2021/09/10 00:41:54;;;;;;;;;;;;;;;28.64;45.91;101105.75;5088878;28;19920;-92
2021/09/10 00:44:19;;;;;;;;;;;;;;;28.63;46.21;101108.72;5089982;28;19917;-85
2021/09/10 00:46:46;;;;;;;;;;;;;;;29.08;44.95;101106.06;5107977;28;19939;-84
2021/09/10 00:49:12;;;;;;;;;;;;;;;28.33;46.77;101103.00;5090960;28;19964;-84
2021/09/10 00:51:37;;;;;;;;;;;;;;;28.89;45.60;101097.19;5074650;28;19920;-90
2021/09/10 00:54:03;;;;;;;;;;;;;;;28.29;46.96;101098.84;5091976;28;20309;-91
2021/09/10 00:56:28;;;;;;;;;;;;;;;29.07;45.07;101088.50;5109163;28;19946;-88
2021/09/10 00:58:56;;;;;;;;;;;;;;;28.49;46.40;101095.56;5110399;28;20434;-86
2021/09/10 01:01:23;;;;;;;;;;;;;;;28.44;46.38;101093.34;5091420;28;19927;-86
2021/09/10 01:03:50;;;;;;;;;;;;;;;28.22;46.88;101095.94;5088231;28;19925;-81
2021/09/10 01:06:15;;;;;;;;;;;;;;;28.07;47.42;101095.00;5087578;28;20003;-85
2021/09/10 01:08:41;;;;;;;;;;;;;;;27.72;48.35;101094.41;5088844;28;19923;-87
2021/09/10 01:11:07;;;;;;;;;;;;;;;27.71;48.75;101095.47;5088720;28;19916;-87
2021/09/10 01:13:33;;;;;;;;;;;;;;;27.55;49.20;101093.59;5087762;28;20079;-88
2021/09/10 01:15:59;;;;;;;;;;;;;;;27.56;49.51;101087.88;5086094;28;19923;-91
2021/09/10 01:18:24;;;;;;;;;;;;;;;27.99;48.16;101090.34;5085682;28;19923;-89
2021/09/10 01:20:49;;;;;;;;;;;;;;;28.05;47.92;101084.03;5085647;28;19920;-84
2021/09/10 01:23:15;;;;;;;;;;;;;;;28.27;47.27;101085.09;5085133;28;19916;-86
2021/09/10 01:25:41;;;;;;;;;;;;;;;28.23;47.09;101086.56;5086443;28;19924;-87
2021/09/10 01:28:06;;;;;;;;;;;;;;;27.83;48.58;101085.69;5087713;28;19917;-89
2021/09/10 01:30:34;;;;;;;;;;;;;;;27.92;48.25;101089.28;5086327;28;19970;-89
2021/09/10 01:33:01;;;;;;;;;;;;;;;27.71;49.38;101092.69;5086816;28;19978;-85
2021/09/10 01:35:26;;;;;;;;;;;;;;;28.16;47.35;101087.44;5087084;28;19916;-87
2021/09/10 01:37:54;;;;;;;;;;;;;;;28.77;46.06;101093.13;5086806;28;19923;-89
2021/09/10 01:40:19;;;;;;;;;;;;;;;29.12;44.91;101086.03;5086445;28;20394;-83
2021/09/10 01:42:45;;;;;;;;;;;;;;;28.21;47.41;101094.19;5086643;28;19978;-86
2021/09/10 01:45:11;;;;;;;;;;;;;;;28.54;46.75;101087.56;5086959;28;19917;-88
2021/09/10 01:47:37;;;;;;;;;;;;;;;27.84;48.36;101083.75;5070238;28;20381;-88
2021/09/10 01:50:04;;;;;;;;;;;;;;;27.82;48.89;101081.16;5086245;28;19923;-84
2021/09/10 01:52:30;;;;;;;;;;;;;;;28.02;48.76;101087.19;5085353;28;19916;-86
2021/09/10 01:54:55;;;;;;;;;;;;;;;28.56;46.69;101079.88;5085421;28;19917;-88
2021/09/10 01:57:20;;;;;;;;;;;;;;;28.25;47.69;101081.66;5086200;28;20086;-86
2021/09/10 01:59:46;;;;;;;;;;;;;;;27.80;49.10;101076.84;5087123;28;19916;-85
2021/09/10 02:02:11;;;;;;;;;;;;;;;28.38;47.49;101082.97;5087324;28;19916;-87
2021/09/10 02:04:37;;;;;;;;;;;;;;;28.56;47.21;101079.88;5087436;28;19924;-88
2021/09/10 02:07:03;;;;;;;;;;;;;;;28.29;48.71;101085.81;5088429;28;19916;-86
2021/09/10 02:09:28;;;;;;;;;;;;;;;28.88;46.87;101086.25;5087474;28;19913;-86
2021/09/10 02:11:53;;;;;;;;;;;;;;;29.00;46.77;101090.31;5087566;28;19924;-85
2021/09/10 02:14:19;;;;;;;;;;;;;;;28.60;47.84;101081.28;5085579;28;19963;-86
2021/09/10 02:16:44;;;;;;;;;;;;;;;28.81;47.33;101081.44;5084713;28;19931;-81
2021/09/10 02:19:09;;;;;;;;;;;;;;;28.60;47.84;101079.34;5085068;28;19978;-90
2021/09/10 02:21:37;;;;;;;;;;;;;;;28.81;47.46;101083.34;5085858;28;20011;-82
2021/09/10 02:24:03;;;;;;;;;;;;;;;28.61;47.72;101089.44;5085553;28;19917;-82
2021/09/10 02:26:29;;;;;;;;;;;;;;;28.85;47.39;101087.47;5086601;28;19970;-86
2021/09/10 02:28:55;;;;;;;;;;;;;;;28.74;47.73;101085.16;5084910;28;19924;-80
2021/09/10 02:31:20;;;;;;;;;;;;;;;28.95;47.08;101090.00;5084451;28;20328;-86
2021/09/10 02:33:46;;;;;;;;;;;;;;;29.34;45.70;101084.25;5085121;28;19916;-87
2021/09/10 02:36:11;;;;;;;;;;;;;;;29.33;45.40;101092.78;5084568;28;19917;-85
2021/09/10 02:38:36;;;;;;;;;;;;;;;28.97;46.54;101091.56;5085533;28;19963;-84
2021/09/10 02:41:01;;;;;;;;;;;;;;;28.54;47.88;101099.53;5085428;28;19980;-86
2021/09/10 02:43:27;;;;;;;;;;;;;;;28.56;48.31;101094.63;5085066;28;19932;-90
2021/09/10 02:45:52;;;;;;;;;;;;;;;28.81;47.93;101087.00;5083927;28;19921;-85
2021/09/10 02:48:17;;;;;;;;;;;;;;;28.47;48.76;101087.41;5083936;28;20360;-92
2021/09/10 02:50:42;;;;;;;;;;;;;;;28.53;49.01;101091.38;5084312;28;19956;-81
2021/09/10 02:53:07;;;;;;;;;;;;;;;28.25;50.21;101089.16;5084573;28;19916;-85
2021/09/10 02:55:33;;;;;;;;;;;;;;;28.22;50.20;101093.16;5084458;28;19921;-83
2021/09/10 02:57:58;;;;;;;;;;;;;;;28.42;49.38;101087.97;5084609;28;19999;-87
2021/09/10 03:00:24;;;;;;;;;;;;;;;28.55;49.02;101092.03;5083797;28;19920;-80
2021/09/10 03:02:50;;;;;;;;;;;;;;;28.34;49.70;101096.38;5087588;28;19943;-87
2021/09/10 03:05:15;;;;;;;;;;;;;;;28.77;48.69;101093.13;5104559;28;19924;-86
2021/09/10 03:07:40;;;;;;;;;;;;;;;28.64;48.87;101100.19;5105813;28;19938;-82
2021/09/10 03:10:06;;;;;;;;;;;;;;;28.18;50.33;101094.56;5088042;28;20353;-87
2021/09/10 03:12:31;;;;;;;;;;;;;;;28.53;49.20;101089.44;5087813;28;19924;-86
2021/09/10 03:14:57;;;;;;;;;;;;;;;28.42;49.79;101095.47;5087045;28;20400;-87
2021/09/10 03:17:22;;;;;;;;;;;;;;;28.78;48.77;101094.88;5104849;28;19943;-85
2021/09/10 03:19:49;;;;;;;;;;;;;;;28.42;49.87;101090.75;5088345;28;19926;-89
2021/09/10 03:22:14;;;;;;;;;;;;;;;28.63;49.05;101092.88;5087752;28;20285;-88
2021/09/10 03:24:39;;;;;;;;;;;;;;;28.39;49.68;101098.63;5087215;28;19916;-86
2021/09/10 03:27:05;;;;;;;;;;;;;;;28.28;50.50;101099.91;5104838;28;19922;-82
2021/09/10 03:29:30;;;;;;;;;;;;;;;27.92;51.16;101101.28;5087417;28;20408;-90
2021/09/10 03:31:55;;;;;;;;;;;;;;;28.62;49.34;101104.22;5087224;28;20373;-84
2021/09/10 03:34:21;;;;;;;;;;;;;;;28.50;49.62;101097.31;5086107;28;20369;-86
2021/09/10 03:36:46;;;;;;;;;;;;;;;28.44;49.61;101093.34;5087495;28;19938;-87
2021/09/10 03:39:12;;;;;;;;;;;;;;;28.61;49.18;101100.56;5088401;28;19991;-84
2021/09/10 03:41:37;;;;;;;;;;;;;;;28.66;48.94;101100.00;5088255;28;19916;-86
2021/09/10 03:44:02;;;;;;;;;;;;;;;28.79;48.48;101097.47;5105876;28;19967;-88
2021/09/10 03:46:28;;;;;;;;;;;;;;;28.27;49.89;101098.16;5070679;28;19920;-87
2021/09/10 03:48:53;;;;;;;;;;;;;;;28.88;48.23;101089.91;5104343;28;19924;-86
2021/09/10 03:51:18;;;;;;;;;;;;;;;29.02;47.30;101098.47;5104438;28;19916;-83
2021/09/10 03:53:43;;;;;;;;;;;;;;;28.70;48.58;101092.13;5087074;28;19947;-86
2021/09/10 03:56:09;;;;;;;;;;;;;;;28.81;48.26;101088.94;5087100;28;19920;-84
2021/09/10 03:58:34;;;;;;;;;;;;;;;29.22;46.84;101090.50;5085809;28;20030;-83
2021/09/10 04:00:59;;;;;;;;;;;;;;;28.45;48.68;101095.94;5104390;28;19916;-90
2021/09/10 04:03:24;;;;;;;;;;;;;;;28.32;49.72;101097.59;5085883;28;19968;-84
2021/09/10 04:05:50;;;;;;;;;;;;;;;28.31;49.58;101099.53;5086285;28;20281;-85
2021/09/10 04:08:16;;;;;;;;;;;;;;;28.10;50.61;101092.69;5085836;28;19919;-84
2021/09/10 04:10:41;;;;;;;;;;;;;;;28.26;49.40;101100.09;5086055;28;20396;-85
2021/09/10 04:13:06;;;;;;;;;;;;;;;27.69;51.31;101103.09;5103765;28;19947;-84
2021/09/10 04:15:32;;;;;;;;;;;;;;;28.03;50.42;101102.81;5084244;28;19912;-86
2021/09/10 04:17:58;;;;;;;;;;;;;;;28.14;50.11;101100.66;5103980;28;19970;-89
2021/09/10 04:20:23;;;;;;;;;;;;;;;28.11;50.39;101101.91;5085105;28;19912;-89
2021/09/10 04:22:49;;;;;;;;;;;;;;;27.65;52.03;101105.38;5086733;28;19920;-86
2021/09/10 04:25:15;;;;;;;;;;;;;;;27.42;53.05;101099.72;5086951;28;19916;-84
2021/09/10 04:27:40;;;;;;;;;;;;;;;27.54;52.50;101097.44;5104477;28;19916;-87
2021/09/10 04:30:06;;;;;;;;;;;;;;;27.92;51.20;101094.84;5104853;28;20417;-87
2021/09/10 04:32:32;;;;;;;;;;;;;;;28.20;49.92;101089.69;5086179;28;19916;-83
2021/09/10 04:34:58;;;;;;;;;;;;;;;28.49;49.11;101101.13;5084676;28;19923;-87
2021/09/10 04:37:29;;;;;;;;;;;;;;;28.30;49.37;101095.00;5085662;28;19920;-87
2021/09/10 04:39:55;;;;;;;;;;;;;;;28.39;48.89;101095.84;5085675;28;20015;-89
2021/09/10 04:42:22;;;;;;;;;;;;;;;27.80;51.18;101097.16;5086967;28;19924;-90
2021/09/10 04:44:47;;;;;;;;;;;;;;;27.39;52.49;101100.09;5086190;28;19944;-86
2021/09/10 04:47:12;;;;;;;;;;;;;;;28.20;50.00;101095.25;5086212;28;19923;-87
2021/09/10 04:49:41;;;;;;;;;;;;;;;27.80;50.99;101091.59;5086143;28;19916;-81
2021/09/10 04:52:06;;;;;;;;;;;;;;;28.09;50.00;101095.66;5084615;28;19916;-87
2021/09/10 04:54:31;;;;;;;;;;;;;;;28.66;48.45;101080.53;5102622;28;20006;-81
2021/09/10 04:56:56;;;;;;;;;;;;;;;28.98;47.05;101086.84;5084772;28;20572;-87
2021/09/10 04:59:22;;;;;;;;;;;;;;;28.98;47.06;101086.84;5084691;28;19916;-87
2021/09/10 05:01:47;;;;;;;;;;;;;;;28.66;48.34;101093.59;5104642;28;19923;-86
2021/09/10 05:04:13;;;;;;;;;;;;;;;28.60;47.87;101098.81;5077850;28;19920;-85
2021/09/10 05:06:41;;;;;;;;;;;;;;;28.29;49.22;101096.06;5058538;28;20606;-84
2021/09/10 05:09:06;;;;;;;;;;;;;;;27.93;50.43;101099.34;5058420;28;19951;-82
2021/09/10 05:11:33;;;;;;;;;;;;;;;28.13;49.77;101097.03;5056407;28;19925;-84
2021/09/10 05:13:58;;;;;;;;;;;;;;;28.69;47.85;101096.84;5060692;28;19973;-82
2021/09/10 05:16:23;;;;;;;;;;;;;;;28.83;47.40;101095.16;5060860;28;19974;-83
2021/09/10 05:18:51;;;;;;;;;;;;;;;28.92;47.42;101102.38;5060988;28;19925;-83
2021/09/10 05:21:16;;;;;;;;;;;;;;;28.93;47.47;101090.19;5058949;28;19917;-83
2021/09/10 05:23:42;;;;;;;;;;;;;;;28.74;47.57;101096.28;5058912;28;20016;-83
2021/09/10 05:26:07;;;;;;;;;;;;;;;28.53;48.08;101100.59;5057936;28;20381;-81
2021/09/10 05:28:33;;;;;;;;;;;;;;;28.78;47.64;101100.44;5059508;28;19956;-82
2021/09/10 05:30:59;;;;;;;;;;;;;;;28.73;47.70;101109.34;5050877;28;20302;-84
2021/09/10 05:33:24;;;;;;;;;;;;;;;28.62;48.09;101118.13;5048944;28;19953;-82
2021/09/10 05:35:49;;;;;;;;;;;;;;;28.05;49.37;101119.31;5047406;28;19916;-82
2021/09/10 05:38:15;;;;;;;;;;;;;;;28.31;49.26;101118.13;5045764;28;19924;-81
2021/09/10 05:40:40;;;;;;;;;;;;;;;28.50;48.54;101130.72;5044382;28;19940;-81
2021/09/10 05:43:05;;;;;;;;;;;;;;;27.83;50.24;101123.75;5044823;28;20341;-82
2021/09/10 05:45:31;;;;;;;;;;;;;;;27.50;51.83;101133.03;5044779;28;19917;-82
2021/09/10 05:47:56;;;;;;;;;;;;;;;28.34;49.07;101134.44;5049146;28;19919;-82
2021/09/10 05:50:21;;;;;;;;;;;;;;;27.96;50.01;101131.50;5048288;28;19917;-82
2021/09/10 05:52:46;;;;;;;;;;;;;;;27.87;50.44;101137.09;5056584;28;19921;-83
2021/09/10 05:55:11;;;;;;;;;;;;;;;28.43;49.04;101133.38;5055712;28;19921;-82
2021/09/10 05:57:39;;;;;;;;;;;;;;;28.40;48.52;101136.50;5057364;28;19917;-84
2021/09/10 06:00:05;;;;;;;;;;;;;;;28.24;49.21;101149.47;5058390;28;20385;-81
2021/09/10 06:02:30;;;;;;;;;;;;;;;27.31;52.07;101147.28;5057782;28;19946;-85
2021/09/10 06:04:55;;;;;;;;;;;;;;;28.18;49.60;101139.06;5099325;28;19927;-85
2021/09/10 06:07:21;;;;;;;;;;;;;;;28.45;49.16;101146.03;5098820;28;19916;-84
2021/09/10 06:09:46;;;;;;;;;;;;;;;28.14;49.80;101142.41;5100599;28;19920;-86
2021/09/10 06:12:11;;;;;;;;;;;;;;;28.88;47.58;101156.75;5080709;28;19916;-87
2021/09/10 06:14:38;;;;;;;;;;;;;;;29.48;46.09;101154.13;5082352;28;20344;-92
2021/09/10 06:17:03;;;;;;;;;;;;;;;29.27;46.44;101150.16;5067592;28;19970;-90
2021/09/10 06:19:29;;;;;;;;;;;;;;;28.85;47.78;101161.81;5100981;28;19920;-88
2021/09/10 06:21:55;;;;;;;;;;;;;;;29.37;46.18;101157.41;5097290;28;19907;-86
2021/09/10 06:24:20;;;;;;;;;;;;;;;28.97;47.73;101158.41;5100138;28;19916;-86
2021/09/10 06:26:45;;;;;;;;;;;;;;;28.79;48.26;101157.84;5098984;28;19927;-85
2021/09/10 06:29:11;;;;;;;;;;;;;;;28.62;48.62;101160.75;5099974;28;20426;-87
2021/09/10 06:31:36;;;;;;;;;;;;;;;29.43;46.85;101163.06;5082686;28;20316;-85
2021/09/10 06:34:01;;;;;;;;;;;;;;;28.90;47.83;101168.56;5100687;28;19923;-86
2021/09/10 06:36:27;;;;;;;;;;;;;;;28.81;48.55;101167.75;5098970;28;20335;-86
2021/09/10 06:38:52;;;;;;;;;;;;;;;27.96;50.83;101176.91;5099240;28;19912;-84
2021/09/10 06:41:17;;;;;;;;;;;;;;;29.03;48.20;101176.28;5099909;28;19923;-88
2021/09/10 06:43:42;;;;;;;;;;;;;;;28.93;47.99;101173.75;5100250;28;19916;-87
2021/09/10 06:46:08;;;;;;;;;;;;;;;28.43;49.43;101170.41;5100961;28;19921;-87
2021/09/10 06:48:33;;;;;;;;;;;;;;;28.34;50.43;101174.31;5100252;28;19990;-88
2021/09/10 06:50:58;;;;;;;;;;;;;;;27.99;50.47;101168.22;5100628;28;19916;-83
2021/09/10 06:53:24;;;;;;;;;;;;;;;28.85;48.48;101179.38;5082633;28;19912;-87
2021/09/10 06:55:49;;;;;;;;;;;;;;;28.35;49.53;101186.28;5101215;28;19919;-86
2021/09/10 06:58:14;;;;;;;;;;;;;;;28.33;49.76;101182.81;5098669;28;19920;-85
2021/09/10 07:00:39;;;;;;;;;;;;;;;29.11;47.04;101183.72;5100788;28;19962;-86
2021/09/10 07:03:04;;;;;;;;;;;;;;;28.89;48.41;101180.75;5101118;28;19920;-85
2021/09/10 07:05:33;;;;;;;;;;;;;;;28.92;47.72;101185.09;5100515;28;20013;-84
2021/09/10 07:07:58;;;;;;;;;;;;;;;28.67;48.04;101176.03;5080044;28;20389;-85
2021/09/10 07:10:23;;;;;;;;;;;;;;;29.11;47.54;101180.94;5098346;28;19965;-85
2021/09/10 07:12:49;;;;;;;;;;;;;;;28.87;47.97;101179.22;5097451;28;19945;-84
2021/09/10 07:15:15;;;;;;;;;;;;;;;29.45;46.38;101185.16;5097268;28;19973;-87
2021/09/10 07:17:40;;;;;;;;;;;;;;;28.44;48.88;101193.53;5094441;28;19916;-86
2021/09/10 07:20:05;;;;;;;;;;;;;;;27.67;50.97;101196.94;5095059;28;19916;-86
2021/09/10 07:22:30;;;;;;;;;;;;;;;28.93;48.13;101201.59;5095371;28;19971;-87
2021/09/10 07:24:56;;;;;;;;;;;;;;;28.58;48.58;101195.56;5094627;28;19927;-86
2021/09/10 07:27:21;;;;;;;;;;;;;;;28.16;49.91;101202.38;5076863;28;19931;-87
2021/09/10 07:29:46;;;;;;;;;;;;;;;29.30;46.93;101202.72;5094835;28;19924;-87
2021/09/10 07:32:11;;;;;;;;;;;;;;;29.28;46.61;101202.06;5096899;28;20412;-87
2021/09/10 07:34:37;;;;;;;;;;;;;;;28.27;48.87;101210.31;5097212;28;20359;-87
2021/09/10 07:37:02;;;;;;;;;;;;;;;28.35;48.48;101216.91;5096972;28;19931;-87
2021/09/10 07:39:27;;;;;;;;;;;;;;;27.57;50.64;101213.81;5097750;28;19916;-85
2021/09/10 07:41:52;;;;;;;;;;;;;;;29.28;46.40;101220.69;5095420;28;20324;-86
2021/09/10 07:44:18;;;;;;;;;;;;;;;29.59;45.34;101216.91;5097508;28;19937;-82
2021/09/10 07:46:44;;;;;;;;;;;;;;;29.13;46.14;101223.41;5096608;28;20466;-87
2021/09/10 07:49:11;;;;;;;;;;;;;;;28.28;48.65;101227.91;5079723;28;19919;-86
2021/09/10 07:51:36;;;;;;;;;;;;;;;28.04;48.78;101232.50;5080278;28;19916;-87
2021/09/10 07:54:02;;;;;;;;;;;;;;;28.48;47.84;101239.44;5079181;28;19927;-87
2021/09/10 07:56:28;;;;;;;;;;;;;;;28.02;48.93;101233.72;5096663;28;19987;-85
2021/09/10 07:58:53;;;;;;;;;;;;;;;28.31;48.00;101246.13;5078581;28;19928;-84
2021/09/10 08:01:19;;;;;;;;;;;;;;;29.65;44.67;101239.34;5096813;28;19912;-87
2021/09/10 08:03:45;;;;;;;;;;;;;;;29.44;45.43;101244.75;5097027;28;19938;-87
2021/09/10 08:06:10;;;;;;;;;;;;;;;29.02;46.64;101246.09;5095737;28;20297;-87
2021/09/10 08:08:35;;;;;;;;;;;;;;;28.10;48.58;101247.59;5095188;28;20432;-87
2021/09/10 08:11:00;;;;;;;;;;;;;;;29.23;46.10;101245.44;5095372;28;19988;-87
2021/09/10 08:13:25;;;;;;;;;;;;;;;29.54;45.16;101241.72;5078723;28;19912;-86
2021/09/10 08:15:51;;;;;;;;;;;;;;;28.94;46.86;101244.25;5094633;28;19961;-85
2021/09/10 08:18:16;;;;;;;;;;;;;;;28.71;47.18;101239.50;5095268;28;19916;-86
2021/09/10 08:20:41;;;;;;;;;;;;;;;29.46;45.08;101242.66;5095785;28;19912;-87
2021/09/10 08:23:07;;;;;;;;;;;;;;;29.74;44.59;101244.81;5096891;28;19928;-86
2021/09/10 08:25:32;;;;;;;;;;;;;;;30.16;43.53;101249.78;5095395;28;20389;-87
2021/09/10 08:27:59;;;;;;;;;;;;;;;29.99;43.88;101237.97;5096759;28;19924;-87
2021/09/10 08:30:24;;;;;;;;;;;;;;;29.86;44.11;101240.53;5095001;28;19942;-85
2021/09/10 08:32:50;;;;;;;;;;;;;;;30.61;42.25;101241.41;5095573;28;19999;-85
2021/09/10 08:35:15;;;;;;;;;;;;;;;29.59;44.62;101254.03;5096135;28;19916;-87
2021/09/10 08:37:41;;;;;;;;;;;;;;;30.44;42.59;101242.66;5096859;28;20030;-87
2021/09/10 08:40:07;;;;;;;;;;;;;;;30.31;42.91;101255.38;5079669;28;19920;-86
2021/09/10 08:42:32;;;;;;;;;;;;;;;30.48;41.94;101257.97;5079883;28;19927;-87
2021/09/10 08:44:58;;;;;;;;;;;;;;;30.49;42.66;101255.00;5095878;28;20246;-88
2021/09/10 08:47:24;;;;;;;;;;;;;;;31.19;41.15;101243.34;5096193;28;19989;-87
2021/09/10 08:49:49;;;;;;;;;;;;;;;30.67;42.17;101250.94;5094633;28;20377;-87
2021/09/10 08:52:15;;;;;;;;;;;;;;;30.80;41.38;101250.19;5097563;28;19916;-86
2021/09/10 08:54:40;;;;;;;;;;;;;;;30.68;41.39;101259.09;5081592;28;19920;-86
2021/09/10 08:57:05;;;;;;;;;;;;;;;31.36;40.08;101255.13;5080794;28;20300;-87
2021/09/10 08:59:31;;;;;;;;;;;;;;;29.85;44.18;101264.78;5080276;28;19916;-88
2021/09/10 09:01:57;;;;;;;;;;;;;;;29.47;44.41;101266.69;5098248;28;19916;-87
2021/09/10 09:04:23;;;;;;;;;;;;;;;28.67;46.79;101270.69;5082135;28;19924;-87
2021/09/10 09:06:50;;;;;;;;;;;;;;;29.54;44.89;101272.38;5099416;28;19923;-86
2021/09/10 09:09:32;;;;;;;;;;;;;;;29.69;44.05;101271.34;5100383;28;19912;-86
2021/09/10 09:12:09;;;;;;;;;;;;;;;29.67;44.04;101273.47;5100186;28;20435;-85
2021/09/10 09:14:55;;;;;;;;;;;;;;;30.12;43.94;101265.19;5099695;28;19916;-85
2021/09/10 09:17:22;;;;;;;;;;;;;;;28.99;45.63;101276.06;5080265;28;19920;-85
2021/09/10 09:20:07;;;;;;;;;;;;;;;29.69;44.63;101274.13;5081396;28;20376;-86
2021/09/10 09:22:49;;;;;;;;;;;;;;;29.74;44.57;101278.28;5080257;28;19930;-85
2021/09/10 09:25:15;;;;;;;;;;;;;;;30.34;43.03;101279.25;5099696;28;20365;-85
2021/09/10 09:27:41;;;;;;;;;;;;;;;29.33;44.98;101285.97;5082076;28;19947;-84
2021/09/10 09:30:06;;;;;;;;;;;;;;;28.64;46.63;101283.94;5082819;28;20011;-84
2021/09/10 09:32:45;;;;;;;;;;;;;;;29.29;44.92;101281.81;5100747;28;20010;-85
2021/09/10 09:35:10;;;;;;;;;;;;;;;28.89;46.33;101280.16;5082048;28;20377;-84
2021/09/10 09:37:35;;;;;;;;;;;;;;;28.95;46.36;101294.19;5100123;28;19927;-85
2021/09/10 09:40:00;;;;;;;;;;;;;;;28.91;46.61;101290.06;5100299;28;19923;-85
2021/09/10 09:42:30;;;;;;;;;;;;;;;29.90;44.18;101280.94;5082279;28;20297;-84
2021/09/10 09:45:09;;;;;;;;;;;;;;;30.18;43.20;101292.34;5082170;28;19916;-85
2021/09/10 09:47:35;;;;;;;;;;;;;;;30.36;41.96;101297.53;5082284;28;19923;-85
2021/09/10 09:50:04;;;;;;;;;;;;;;;29.49;44.18;101300.81;5101322;28;19947;-85
2021/09/10 09:52:30;;;;;;;;;;;;;;;29.48;44.58;101293.50;5082975;28;19970;-85
2021/09/10 09:54:56;;;;;;;;;;;;;;;30.42;42.32;101300.63;5083358;28;19976;-85
2021/09/10 09:57:21;;;;;;;;;;;;;;;30.54;42.08;101301.88;5082636;28;20009;-85
2021/09/10 09:59:46;;;;;;;;;;;;;;;29.75;44.18;101300.41;5099294;28;19920;-85
2021/09/10 10:02:12;;;;;;;;;;;;;;;29.62;43.82;101291.81;5080349;28;19965;-85
2021/09/10 10:04:37;;;;;;;;;;;;;;;29.37;44.28;101296.75;5098325;28;20006;-85
2021/09/10 10:07:04;;;;;;;;;;;;;;;29.74;42.97;101290.31;5081602;28;19922;-85
2021/09/10 10:09:30;;;;;;;;;;;;;;;29.63;43.76;101291.63;5099456;28;19964;-85
2021/09/10 10:11:58;;;;;;;;;;;;;;;30.44;41.64;101295.72;5081650;28;19916;-86
2021/09/10 10:14:37;;;;;;;;;;;;;;;30.46;41.63;101300.06;5099712;28;20055;-85
2021/09/10 10:17:03;;;;;;;;;;;;;;;30.66;40.83;101300.31;5099929;28;19916;-85
2021/09/10 10:19:36;;;;;;;;;;;;;;;29.41;43.58;101303.66;5081192;28;19916;-84
2021/09/10 10:22:02;;;;;;;;;;;;;;;28.94;45.30;101306.41;5077328;28;20331;-85
2021/09/10 10:24:46;;;;;;;;;;;;;;;31.02;40.74;101305.09;5092342;28;19924;-85
2021/09/10 10:27:32;;;;;;;;;;;;;;;30.07;42.36;101301.16;5098789;28;20061;-85
2021/09/10 10:29:58;;;;;;;;;;;;;;;29.33;44.58;101311.06;5081377;28;19950;-85
2021/09/10 10:32:32;;;;;;;;;;;;;;;29.56;43.81;101317.66;5068458;28;20297;-84
2021/09/10 10:35:14;;;;;;;;;;;;;;;29.15;45.42;101307.66;5085053;28;20020;-84
2021/09/10 10:37:43;;;;;;;;;;;;;;;29.07;45.35;101316.09;5090972;28;19920;-82
2021/09/10 10:40:25;;;;;;;;;;;;;;;29.26;44.60;101318.41;5062427;28;19924;-86
2021/09/10 10:42:51;;;;;;;;;;;;;;;29.46;44.35;101320.72;5078191;28;19956;-85
2021/09/10 10:45:17;;;;;;;;;;;;;;;30.12;42.68;101318.22;5060481;28;19917;-88
2021/09/10 10:47:42;;;;;;;;;;;;;;;30.19;43.18;101315.53;5060734;28;19916;-88
2021/09/10 10:50:26;;;;;;;;;;;;;;;30.66;41.69;101317.06;5079278;28;19958;-87
2021/09/10 10:52:55;;;;;;;;;;;;;;;31.57;40.21;101308.28;5079959;28;19920;-88
2021/09/10 10:55:25;;;;;;;;;;;;;;;30.98;41.02;101317.75;5060957;28;19923;-86
2021/09/10 10:57:51;;;;;;;;;;;;;;;31.47;39.70;101307.72;5061415;28;20384;-87
2021/09/10 11:00:29;;;;;;;;;;;;;;;31.57;39.47;101302.69;5077892;28;20378;-86
2021/09/10 11:03:12;;;;;;;;;;;;;;;29.91;42.80;101305.00;5059573;28;20299;-85
2021/09/10 11:05:39;;;;;;;;;;;;;;;30.75;40.33;101303.88;5061141;28;19978;-87
2021/09/10 11:08:04;;;;;;;;;;;;;;;30.39;41.09;101310.22;5061385;28;19921;-88
2021/09/10 11:10:29;;;;;;;;;;;;;;;30.73;40.85;101306.00;5060798;28;19924;-81
2021/09/10 11:12:55;;;;;;;;;;;;;;;31.13;39.94;101300.03;5059054;28;19917;-88
2021/09/10 11:15:25;;;;;;;;;;;;;;;31.03;40.40;101301.25;5079136;28;20289;-87
2021/09/10 11:17:53;;;;;;;;;;;;;;;30.82;40.47;101303.97;5060737;28;19947;-85
2021/09/10 11:20:34;;;;;;;;;;;;;;;31.21;39.71;101295.19;5059870;28;19920;-86
2021/09/10 11:23:00;;;;;;;;;;;;;;;30.93;40.10;101293.16;5060287;28;19916;-89
2021/09/10 11:25:25;;;;;;;;;;;;;;;30.52;40.68;101299.28;5077898;28;19995;-89
2021/09/10 11:27:50;;;;;;;;;;;;;;;31.64;39.14;101288.75;5060437;28;19992;-89
2021/09/10 11:30:16;;;;;;;;;;;;;;;31.19;39.67;101286.16;5060288;28;19923;-85
2021/09/10 11:32:41;;;;;;;;;;;;;;;30.35;41.34;101293.00;5060511;28;20027;-89
2021/09/10 11:35:23;;;;;;;;;;;;;;;31.15;39.64;101293.19;5059917;28;19931;-86
2021/09/10 11:38:02;;;;;;;;;;;;;;;31.26;39.18;101278.69;5059765;28;19921;-81
2021/09/10 11:40:47;;;;;;;;;;;;;;;30.59;40.95;101282.63;5060347;28;20298;-81
2021/09/10 11:43:17;;;;;;;;;;;;;;;31.45;38.66;101277.16;5059598;28;19980;-84
2021/09/10 11:45:54;;;;;;;;;;;;;;;31.32;38.98;101274.22;5077686;28;19917;-84
2021/09/10 11:48:21;;;;;;;;;;;;;;;31.33;39.57;101270.38;5077472;28;19912;-85
2021/09/10 11:51:00;;;;;;;;;;;;;;;30.72;39.96;101271.63;5077422;28;20038;-86
2021/09/10 11:53:27;;;;;;;;;;;;;;;30.82;40.01;101284.41;5060102;28;20297;-82
2021/09/10 11:56:07;;;;;;;;;;;;;;;31.14;40.08;101279.44;5060967;28;19916;-86
2021/09/10 11:58:32;;;;;;;;;;;;;;;30.31;41.37;101269.31;5077182;28;19912;-88
2021/09/10 12:01:26;;;;;;;;;;;;;;;;;;;;;
2021/09/10 12:03:55;;;;;;;;;;;;;;;30.10;42.01;101280.41;5076900;28;19931;-86
2021/09/10 12:06:22;;;;;;;;;;;;;;;30.77;40.46;101278.53;5060218;28;19917;-85
2021/09/10 12:09:10;;;;;;;;;;;;;;;29.93;42.31;101288.09;5077639;28;19916;-85
2021/09/10 12:11:55;;;;;;;;;;;;;;;29.94;41.57;101285.09;5047716;28;20282;-85
2021/09/10 12:14:27;;;;;;;;;;;;;;;31.14;39.70;101285.88;5075826;28;19974;-84
2021/09/10 12:17:11;;;;;;;;;;;;;;;29.94;41.64;101279.53;5058382;28;19946;-85
2021/09/10 12:19:56;;;;;;;;;;;;;;;28.77;44.95;101285.25;5061370;28;20011;-86
2021/09/10 12:22:30;;;;;;;;;;;;;;;30.61;39.98;101280.50;5045896;28;19920;-86
2021/09/10 12:25:14;;;;;;;;;;;;;;;30.70;40.06;101284.91;5060542;28;19916;-86
2021/09/10 12:27:39;;;;;;;;;;;;;;;29.63;42.43;101291.63;5059709;28;19916;-85
2021/09/10 12:30:08;;;;;;;;;;;;;;;31.60;38.59;101281.81;5076214;28;20035;-86
2021/09/10 12:32:33;;;;;;;;;;;;;;;31.01;39.52;101292.19;5077180;28;19958;-85
2021/09/10 12:34:58;;;;;;;;;;;;;;;29.64;42.12;101290.59;5042811;28;19971;-86
2021/09/10 12:37:23;;;;;;;;;;;;;;;30.84;39.45;101290.66;5078268;28;20384;-86